Time;durP1;ratioP1;P1;durP2;ratioP2;P2;SDS_P1;SDS_P2;PMS_P1;PMS_P2;Temp;Humidity;BMP_temperature;BMP_pressure;BME280_temperature;BME280_humidity;BME280_pressure;Samples;Min_cycle;Max_cycle;Signal;HPM_P1;HPM_P2
2022/06/20 04:22:42;;;;;;;7.65;4.72;;;;;;;19.99;69.55;99619.13;5089082;28;20362;-74
2022/06/20 04:25:40;;;;;;;15.63;5.00;;;;;;;20.00;69.69;99619.94;5089339;28;20059;-74
2022/06/20 04:28:26;;;;;;;14.88;5.35;;;;;;;20.00;70.05;99619.94;5061028;28;20512;-74
2022/06/20 04:31:08;;;;;;;8.80;5.63;;;;;;;20.05;69.93;99611.91;5068578;28;20041;-74
2022/06/20 04:33:40;;;;;;;12.90;5.15;;;;;;;20.06;69.67;99618.94;5089094;22;20063;-80
2022/06/20 04:36:17;;;;;;;14.95;6.88;;;;;;;20.10;69.86;99619.28;5089819;28;20376;-77
2022/06/20 04:38:58;;;;;;;13.00;4.60;;;;;;;20.22;69.48;99626.19;5089841;28;20048;-79
2022/06/20 04:41:32;;;;;;;11.23;5.32;;;;;;;20.05;71.17;99625.41;5088990;28;20036;-78
2022/06/20 04:44:05;;;;;;;10.10;5.13;;;;;;;20.11;69.41;99643.34;5087358;28;20035;-79
2022/06/20 04:46:41;;;;;;;15.77;5.43;;;;;;;20.08;70.90;99654.66;5090862;28;20115;-78
2022/06/20 04:49:12;;;;;;;17.55;5.47;;;;;;;20.04;70.21;99651.63;5090356;28;20036;-77
2022/06/20 04:51:40;;;;;;;10.00;4.95;;;;;;;20.05;70.09;99649.75;5089732;28;20032;-78
2022/06/20 04:54:12;;;;;;;12.60;5.53;;;;;;;20.04;70.53;99645.41;5088406;28;20550;-77
2022/06/20 04:56:39;;;;;;;9.88;5.10;;;;;;;20.09;70.21;99655.50;5088597;28;20038;-78
2022/06/20 04:59:10;;;;;;;10.38;4.55;;;;;;;20.11;70.13;99659.56;5092697;28;20036;-77
2022/06/20 05:01:36;;;;;;;14.75;4.68;;;;;;;20.11;70.61;99673.09;5088287;28;20457;-79
2022/06/20 05:04:11;;;;;;;12.55;4.82;;;;;;;20.22;70.82;99657.84;5091494;28;20040;-78
2022/06/20 05:06:39;;;;;;;13.32;4.68;;;;;;;20.11;72.60;99669.56;5089216;28;20032;-79
2022/06/20 05:09:15;;;;;;;19.05;6.47;;;;;;;20.17;70.84;99666.69;5091299;28;20036;-77
2022/06/20 05:12:05;;;;;;;17.80;5.80;;;;;;;20.24;71.41;99642.97;5088584;28;20073;-77
2022/06/20 05:14:37;;;;;;;12.88;4.47;;;;;;;20.20;71.44;99660.75;5091423;28;20028;-79
2022/06/20 05:17:08;;;;;;;13.57;5.10;;;;;;;20.18;71.78;99668.31;5090340;28;20033;-77
2022/06/20 05:19:42;;;;;;;14.00;5.18;;;;;;;20.29;71.18;99664.69;5088706;28;20029;-80
2022/06/20 05:22:15;;;;;;;11.57;5.55;;;;;;;20.37;70.62;99658.00;5091744;28;20032;-77
2022/06/20 05:24:44;;;;;;;11.02;4.93;;;;;;;20.34;69.60;99655.78;5092137;28;20047;-79
2022/06/20 05:27:21;;;;;;;12.65;5.20;;;;;;;20.41;69.25;99659.16;5088443;28;20033;-79
2022/06/20 05:29:49;;;;;;;8.35;4.75;;;;;;;20.52;69.71;99674.47;5090490;28;20062;-80
2022/06/20 05:32:23;;;;;;;13.13;5.75;;;;;;;20.56;68.90;99672.06;5085689;28;20036;-78
2022/06/20 05:35:05;;;;;;;17.70;5.38;;;;;;;20.42;69.27;99674.31;5075409;28;20066;-77
2022/06/20 05:37:49;;;;;;;13.45;5.15;;;;;;;20.40;69.65;99667.50;5076926;28;20040;-80
2022/06/20 05:40:22;;;;;;;9.30;4.60;;;;;;;20.51;70.17;99662.00;5074390;28;20032;-76
2022/06/20 05:42:47;;;;;;;17.85;5.85;;;;;;;20.47;69.80;99662.75;5077076;28;20154;-79
2022/06/20 05:45:19;;;;;;;13.30;4.80;;;;;;;20.52;69.50;99673.63;5076627;28;20517;-79
2022/06/20 05:47:54;;;;;;;10.75;4.50;;;;;;;20.52;69.96;99677.16;5076867;28;20051;-78
2022/06/20 05:50:28;;;;;;;12.77;5.43;;;;;;;20.66;70.14;99677.59;5075241;28;20036;-77
2022/06/20 05:52:55;;;;;;;14.85;5.15;;;;;;;20.62;67.95;99675.66;5073344;28;20052;-77
2022/06/20 05:55:25;;;;;;;11.70;5.05;;;;;;;20.65;68.41;99677.84;5073675;28;20086;-76
2022/06/20 05:57:54;;;;;;;9.90;5.07;;;;;;;20.70;68.53;99670.63;5073805;28;20054;-76
2022/06/20 06:00:27;;;;;;;14.85;4.70;;;;;;;20.68;68.06;99675.47;5072770;28;20048;-77
2022/06/20 06:03:02;;;;;;;8.70;4.25;;;;;;;20.87;68.41;99673.25;5073656;28;20040;-77
2022/06/20 06:05:38;;;;;;;9.25;4.72;;;;;;;20.80;68.23;99678.84;5075857;28;20064;-77
2022/06/20 06:08:24;;;;;;;8.80;5.00;;;;;;;20.79;68.15;99679.91;5076478;28;20509;-78
2022/06/20 06:11:02;;;;;;;11.48;4.65;;;;;;;20.84;69.15;99696.22;5076719;28;20071;-78
2022/06/20 06:13:46;;;;;;;10.82;4.65;;;;;;;20.82;67.83;99700.25;5075925;28;20096;-76
2022/06/20 06:19:20;;;;;;;15.73;5.13;;;;;;;20.98;67.69;99696.63;5076397;28;20036;-77
2022/06/20 06:21:47;;;;;;;11.23;4.53;;;;;;;21.02;67.61;99695.06;5074731;28;20029;-77
2022/06/20 06:24:16;;;;;;;;;;;;;;;21.07;67.90;99708.66;5072254;28;20036;-78
2022/06/20 06:26:44;;;;;;;13.98;5.00;;;;;;;21.04;68.84;99711.84;5070149;28;19924;-77
2022/06/20 06:29:20;;;;;;;11.15;4.97;;;;;;;21.09;69.16;99713.81;5075142;28;20036;-77
2022/06/20 06:31:49;;;;;;;15.02;5.72;;;;;;;21.14;68.83;99727.41;5057774;28;20442;-78
2022/06/20 06:34:22;;;;;;;11.00;4.97;;;;;;;21.22;66.92;99729.66;5076848;28;20036;-78
2022/06/20 06:37:04;;;;;;;10.95;4.68;;;;;;;21.16;65.94;99724.44;5076561;28;20040;-78
2022/06/20 06:39:37;;;;;;;12.60;5.13;;;;;;;21.25;66.30;99739.13;5076339;28;20032;-79
2022/06/20 06:42:08;;;;;;;13.57;4.93;;;;;;;21.27;65.71;99743.25;5073778;28;20554;-79
2022/06/20 06:44:48;;;;;;;9.48;4.05;;;;;;;21.29;66.75;99749.25;5072973;28;20493;-78
2022/06/20 06:47:27;;;;;;;12.82;4.78;;;;;;;21.45;66.69;99749.38;5075401;28;20522;-78
2022/06/20 06:49:59;;;;;;;12.50;5.13;;;;;;;21.54;65.63;99756.00;5073833;28;20032;-78
2022/06/20 06:52:38;;;;;;;8.93;4.93;;;;;;;21.66;64.72;99771.00;5055358;28;20183;-78
2022/06/20 06:55:03;;;;;;;10.23;4.82;;;;;;;21.66;63.75;99776.44;5075113;28;20037;-78
2022/06/20 06:57:35;;;;;;;14.63;4.82;;;;;;;21.77;64.25;99777.31;5077026;28;20049;-77
2022/06/20 07:00:03;;;;;;;12.45;5.13;;;;;;;21.82;64.69;99787.41;5076494;28;20125;-78
2022/06/20 07:02:34;;;;;;;10.82;4.35;;;;;;;21.86;64.47;99793.94;5076204;28;20031;-78
2022/06/20 07:05:14;;;;;;;10.50;4.90;;;;;;;21.94;64.11;99799.72;5092583;28;20048;-78
2022/06/20 07:08:04;;;;;;;12.05;5.05;;;;;;;22.03;64.78;99804.66;5091398;28;20067;-78
2022/06/20 07:10:52;;;;;;;11.82;5.38;;;;;;;22.17;64.69;99814.03;5057484;28;20513;-78
2022/06/20 07:13:30;;;;;;;18.42;5.25;;;;;;;22.25;64.44;99801.88;5074827;28;20040;-77
2022/06/20 07:15:58;;;;;;;10.00;4.60;;;;;;;22.32;64.14;99810.59;5076452;28;20048;-78
2022/06/20 07:18:42;;;;;;;11.10;4.97;;;;;;;22.43;63.71;99802.28;5077401;28;20040;-78
2022/06/20 07:21:15;;;;;;;10.02;4.95;;;;;;;22.50;63.26;99802.06;5075207;28;20025;-78
2022/06/20 07:23:42;;;;;;;9.18;4.35;;;;;;;22.61;63.16;99811.03;5075626;28;20405;-78
2022/06/20 07:26:10;;;;;;;10.55;4.65;;;;;;;22.59;61.93;99805.88;5077117;28;20040;-78
2022/06/20 07:29:03;;;;;;;9.50;4.82;;;;;;;22.77;61.07;99812.78;5077128;28;20060;-78
2022/06/20 07:31:39;;;;;;;9.57;4.40;;;;;;;22.80;59.85;99806.81;5068633;28;20052;-78
2022/06/20 07:34:24;;;;;;;11.02;4.20;;;;;;;22.95;58.79;99798.78;5089983;28;20040;-78
2022/06/20 07:36:59;;;;;;;15.55;4.70;;;;;;;23.26;59.36;99788.00;5075338;28;20094;-76
2022/06/20 07:39:56;;;;;;;13.48;4.75;;;;;;;23.34;58.28;99767.63;5075008;28;20040;-76
2022/06/20 07:42:27;;;;;;;9.57;4.65;;;;;;;23.38;58.46;99768.75;5070642;28;20117;-74
2022/06/20 07:45:05;;;;;;;8.02;4.53;;;;;;;23.33;57.57;99785.84;5072617;28;20045;-77
2022/06/20 07:47:35;;;;;;;;;;;;;;;23.23;57.69;99783.94;5071898;28;20073;-75
2022/06/20 07:50:10;;;;;;;13.20;4.82;;;;;;;23.26;58.11;99780.66;5072960;28;19916;-76
2022/06/20 07:52:57;;;;;;;7.40;4.72;;;;;;;23.53;58.10;99763.31;5089194;28;20056;-77
2022/06/20 07:55:24;;;;;;;;;;;;;;;23.60;57.43;99768.50;5074526;28;20545;-77
2022/06/20 07:58:02;;;;;;;;;;;;;;;23.62;58.15;99760.94;5073269;28;20384;-75
2022/06/20 08:00:36;;;;;;;9.63;4.80;;;;;;;23.74;57.39;99753.31;5071901;28;19916;-78
2022/06/20 08:03:28;;;;;;;8.05;4.30;;;;;;;23.87;58.00;99757.41;5071088;28;20139;-77
2022/06/20 08:06:03;;;;;;;12.38;5.07;;;;;;;23.99;57.50;99766.09;5071793;28;20066;-76
2022/06/20 08:08:41;;;;;;;11.82;4.55;;;;;;;24.24;57.06;99757.88;5072674;28;20037;-79
2022/06/20 08:11:39;;;;;;;7.97;5.30;;;;;;;24.18;56.38;99739.13;5075221;28;20119;-80
2022/06/20 08:14:01;;;;;;;12.05;5.43;;;;;;;24.37;55.63;99745.66;5075043;28;20050;-82
2022/06/20 08:16:29;;;;;;;14.30;5.40;;;;;;;24.39;56.46;99757.09;5072301;28;20040;-78
2022/06/20 08:18:55;;;;;;;17.33;5.22;;;;;;;24.66;57.06;99758.66;5073863;28;20048;-80
2022/06/20 08:21:26;;;;;;;11.23;4.50;;;;;;;24.69;56.09;99764.34;5074463;28;20093;-79
2022/06/20 08:24:01;;;;;;;10.60;5.30;;;;;;;24.78;55.22;99757.25;5072581;28;20048;-80
2022/06/20 08:26:39;;;;;;;11.50;5.40;;;;;;;24.78;57.03;99770.03;5073014;28;20043;-77
2022/06/20 08:29:12;;;;;;;8.55;5.13;;;;;;;24.82;57.08;99769.19;5072867;28;20047;-78
2022/06/20 08:31:48;;;;;;;12.27;4.88;;;;;;;24.76;57.06;99777.66;5071888;28;20033;-79
2022/06/20 08:34:19;;;;;;;11.85;6.10;;;;;;;24.66;56.16;99780.44;5073195;28;20085;-80
2022/06/20 08:37:13;;;;;;;12.93;6.00;;;;;;;24.72;56.69;99780.13;5072610;28;20052;-79
2022/06/20 08:39:49;;;;;;;11.80;5.45;;;;;;;24.52;56.05;99778.28;5073723;28;20243;-77
2022/06/20 08:42:59;;;;;;;10.00;5.22;;;;;;;24.51;56.27;99790.25;5072771;28;20040;-79
2022/06/20 08:46:06;;;;;;;12.93;5.70;;;;;;;24.69;55.90;99785.31;5073291;28;20039;-79
2022/06/20 08:48:59;;;;;;;11.07;5.47;;;;;;;24.67;57.47;99790.22;5074585;28;20090;-78
2022/06/20 08:52:07;;;;;;;10.85;5.57;;;;;;;24.62;58.10;99786.41;5055949;28;20033;-75
2022/06/20 08:54:48;;;;;;;9.35;5.85;;;;;;;24.66;57.46;99794.03;5051220;28;20029;-76
2022/06/20 08:57:24;;;;;;;11.82;5.22;;;;;;;24.60;56.31;99794.06;5051087;28;20041;-76
2022/06/20 09:00:23;;;;;;;9.13;5.95;;;;;;;24.59;56.02;99786.16;5050677;28;20134;-74
2022/06/20 09:03:29;;;;;;;13.30;5.72;;;;;;;24.57;56.69;99794.59;5050168;28;20127;-75
2022/06/20 09:06:16;;;;;;;10.15;6.15;;;;;;;24.53;56.87;99793.53;5050576;28;20494;-76
2022/06/20 09:09:13;;;;;;;10.55;6.05;;;;;;;24.80;57.82;99805.97;5053659;28;20040;-76
2022/06/20 09:12:00;;;;;;;16.75;6.60;;;;;;;25.03;56.77;99804.50;4969013;28;20477;-76
2022/06/20 09:14:43;;;;;;;10.18;6.13;;;;;;;25.09;54.61;99801.50;5054207;28;20083;-77
2022/06/20 09:17:25;;;;;;;21.52;6.78;;;;;;;25.24;55.41;99814.28;5055488;28;20033;-77
2022/06/20 09:20:13;;;;;;;12.63;5.63;;;;;;;25.82;53.52;99811.75;5055251;28;20382;-77
2022/06/20 09:22:38;;;;;;;11.25;6.22;;;;;;;25.95;52.75;99811.09;5055331;28;20029;-75
2022/06/20 09:25:25;;;;;;;12.40;5.50;;;;;;;25.85;52.88;99813.09;5057472;28;20462;-81
2022/06/20 09:27:56;;;;;;;11.73;5.80;;;;;;;25.73;54.67;99805.25;5058535;28;20040;-78
2022/06/20 09:30:45;;;;;;;11.50;6.13;;;;;;;25.85;53.67;99813.09;5059739;28;20044;-81
2022/06/20 09:33:29;;;;;;;18.92;7.35;;;;;;;25.88;53.73;99801.59;5058861;28;20037;-78
2022/06/20 09:36:13;;;;;;;13.82;6.53;;;;;;;25.84;53.84;99806.81;5056734;28;20041;-78
2022/06/20 09:39:18;;;;;;;9.25;5.95;;;;;;;25.78;54.19;99812.59;5060873;28;20052;-81
2022/06/20 09:42:06;;;;;;;13.45;6.25;;;;;;;25.81;54.03;99812.00;5060619;28;20048;-81
2022/06/20 09:45:10;;;;;;;13.75;6.75;;;;;;;25.83;54.23;99807.94;5059313;28;20057;-79
2022/06/20 09:47:38;;;;;;;15.55;6.40;;;;;;;25.94;55.82;99801.25;4993008;28;20056;-78
2022/06/20 09:50:25;;;;;;;12.95;6.25;;;;;;;26.15;54.13;99807.38;5044438;28;20040;-78
2022/06/20 09:53:03;;;;;;;13.02;5.88;;;;;;;26.15;54.21;99806.56;5056748;28;20048;-78
2022/06/20 09:55:57;;;;;;;11.60;6.32;;;;;;;26.07;54.64;99802.53;5057807;28;20101;-78
2022/06/20 09:58:44;;;;;;;11.88;6.07;;;;;;;26.10;55.32;99817.53;5051724;28;20072;-78
2022/06/20 10:01:13;;;;;;;;;;;;;;;26.06;55.87;99811.00;5058599;28;20508;-79
2022/06/20 10:03:52;;;;;;;13.65;6.55;;;;;;;26.13;54.84;99797.84;5057411;28;20016;-78
2022/06/20 10:06:32;;;;;;;19.70;7.45;;;;;;;26.28;53.64;99807.78;5059393;28;20048;-78
2022/06/20 10:09:11;;;;;;;22.10;11.18;;;;;;;26.17;53.31;99799.72;5058312;28;20025;-79
2022/06/20 10:12:02;;;;;;;13.52;6.68;;;;;;;26.16;55.23;99808.19;5056846;28;20187;-79
2022/06/20 10:14:51;;;;;;;15.18;7.85;;;;;;;26.24;55.11;99811.13;5057775;28;20401;-78
2022/06/20 10:17:40;;;;;;;71.68;36.75;;;;;;;26.24;54.39;99813.84;5056432;28;20152;-78
2022/06/20 10:20:24;;;;;;;11.20;6.95;;;;;;;26.42;53.37;99811.53;5038168;28;20430;-78
2022/06/20 10:23:18;;;;;;;11.05;6.07;;;;;;;26.64;53.06;99798.19;5055174;28;20033;-78
2022/06/20 10:26:20;;;;;;;9.07;6.15;;;;;;;26.64;53.62;99802.81;5056848;28;20551;-78
2022/06/20 10:28:49;;;;;;;11.18;6.13;;;;;;;26.68;53.74;99803.88;5059821;28;20060;-79
2022/06/20 10:31:39;;;;;;;13.43;6.40;;;;;;;26.67;54.28;99802.22;5057768;28;20052;-79
2022/06/20 10:34:17;;;;;;;9.25;5.88;;;;;;;26.55;52.13;99810.84;5054040;28;20033;-77
2022/06/20 10:36:48;;;;;;;12.30;6.10;;;;;;;26.45;53.51;99819.94;5055214;28;20047;-79
2022/06/20 10:39:29;;;;;;;8.18;5.45;;;;;;;26.33;53.29;99824.13;5056331;28;20078;-80
2022/06/20 10:42:14;;;;;;;15.88;7.05;;;;;;;26.53;54.06;99829.41;5060676;28;20032;-80
2022/06/20 10:44:43;;;;;;;8.38;5.82;;;;;;;26.55;55.61;99837.34;5052515;28;20048;-80
2022/06/20 10:47:35;;;;;;;12.40;5.72;;;;;;;26.54;53.53;99825.59;5060285;28;20427;-78
2022/06/20 10:50:15;;;;;;;11.38;5.80;;;;;;;26.88;53.11;99844.63;5056170;28;20037;-79
2022/06/20 10:52:58;;;;;;;12.77;6.15;;;;;;;27.20;51.36;99838.53;5056611;28;20186;-79
2022/06/20 10:55:38;;;;;;;18.38;6.45;;;;;;;27.20;51.15;99835.00;5056748;28;20043;-78
2022/06/20 10:58:33;;;;;;;10.38;6.55;;;;;;;27.20;50.60;99838.53;5057865;28;20067;-79
2022/06/20 11:01:16;;;;;;;11.00;6.07;;;;;;;27.36;51.05;99833.66;5056064;28;20493;-78
2022/06/20 11:04:07;;;;;;;9.70;5.63;;;;;;;27.47;51.21;99845.28;5056543;28;20037;-79
2022/06/20 11:06:47;;;;;;;10.05;5.25;;;;;;;27.78;49.19;99843.78;5057121;28;20079;-79
2022/06/20 11:09:18;;;;;;;17.67;5.43;;;;;;;27.78;49.65;99846.50;5055866;28;20068;-79
2022/06/20 11:12:01;;;;;;;10.30;5.03;;;;;;;28.49;47.29;99849.19;5056093;28;20086;-80
2022/06/20 11:14:53;;;;;;;11.32;5.40;;;;;;;27.99;47.50;99854.41;5055886;28;20386;-78
2022/06/20 11:17:31;;;;;;;17.45;9.55;;;;;;;28.45;46.92;99848.19;5058208;28;20511;-78
2022/06/20 11:20:12;;;;;;;8.93;4.57;;;;;;;29.24;45.59;99853.50;5058198;28;20075;-78
2022/06/20 11:22:43;;;;;;;7.70;4.50;;;;;;;29.75;45.63;99850.47;5059678;28;20476;-80
2022/06/20 11:25:20;;;;;;;7.68;4.07;;;;;;;29.95;43.09;99855.50;5062606;28;20037;-79
2022/06/20 11:28:11;;;;;;;13.20;6.45;;;;;;;29.37;43.76;99858.97;5056459;28;20033;-79
2022/06/20 11:31:08;;;;;;;7.82;4.13;;;;;;;28.76;45.81;99864.88;5055877;28;20045;-79
2022/06/20 11:34:01;;;;;;;10.23;3.60;;;;;;;28.53;45.89;99872.13;5055891;28;20037;-80
2022/06/20 11:37:00;;;;;;;6.00;3.80;;;;;;;28.39;47.28;99899.47;5055749;28;20033;-80
2022/06/20 11:39:36;;;;;;;11.80;4.55;;;;;;;27.50;48.78;99908.41;5055509;28;20140;-81
2022/06/20 11:42:20;;;;;;;9.25;4.43;;;;;;;26.88;50.22;99899.28;5037890;28;20033;-78
2022/06/20 11:45:22;;;;;;;11.18;4.90;;;;;;;26.42;51.86;99904.38;5054156;28;20082;-78
2022/06/20 11:48:25;;;;;;;6.05;4.50;;;;;;;26.04;53.08;99915.00;5051816;28;20108;-78
2022/06/20 11:50:51;;;;;;;9.32;4.78;;;;;;;25.56;55.16;99916.59;5052443;28;20076;-78
2022/06/20 11:53:25;;;;;;;6.60;5.05;;;;;;;25.33;55.81;99923.50;5051661;28;20037;-77
2022/06/20 11:55:58;;;;;;;9.30;4.50;;;;;;;25.13;57.18;99933.38;5052927;28;20116;-78
2022/06/20 11:58:45;;;;;;;13.65;5.28;;;;;;;24.85;59.08;99947.59;5054416;28;20049;-79
2022/06/20 12:01:25;;;;;;;9.57;4.90;;;;;;;24.52;60.60;99947.06;5054129;28;20059;-78
2022/06/20 12:04:12;;;;;;;10.93;5.18;;;;;;;24.53;61.31;99959.59;5054508;28;20033;-77
2022/06/20 12:06:57;;;;;;;9.85;5.32;;;;;;;24.48;62.30;99958.78;5051534;28;20041;-77
2022/06/20 12:09:36;;;;;;;10.10;5.07;;;;;;;24.32;64.67;99971.50;5051575;28;20056;-77
2022/06/20 12:12:12;;;;;;;13.00;5.95;;;;;;;23.84;67.89;99976.31;5052015;28;20033;-77
2022/06/20 12:14:50;;;;;;;9.43;5.88;;;;;;;23.67;69.48;99992.00;5052154;28;20037;-78
2022/06/20 12:17:34;;;;;;;10.80;5.90;;;;;;;23.51;70.30;99988.38;5051483;28;20025;-76
2022/06/20 12:25:55;;;;;;;12.07;5.15;;;;;;;23.69;70.94;100000.72;5051160;28;20033;-78
2022/06/20 12:28:25;;;;;;;10.23;5.50;;;;;;;23.66;70.15;99999.34;5052260;28;20051;-77
2022/06/20 12:31:21;;;;;;;9.63;5.18;;;;;;;23.58;69.72;99999.00;5052632;28;20037;-77
2022/06/20 12:33:57;;;;;;;8.63;5.22;;;;;;;23.67;69.11;100001.00;5021451;28;20060;-77
2022/06/20 12:36:27;;;;;;;6.70;4.72;;;;;;;23.54;68.58;99994.13;5057480;28;20087;-78
2022/06/20 12:39:12;;;;;;;9.45;5.20;;;;;;;23.67;69.87;99997.44;5052538;28;20057;-77
2022/06/20 12:41:42;;;;;;;5.32;4.63;;;;;;;23.70;69.72;100013.25;5052035;28;20036;-77
2022/06/20 12:44:20;;;;;;;6.20;4.50;;;;;;;23.56;67.52;100010.97;5054268;28;20051;-76
2022/06/20 12:46:57;;;;;;;7.78;4.50;;;;;;;23.72;65.82;100009.16;5037255;28;20494;-76
2022/06/20 12:49:44;;;;;;;3.97;3.55;;;;;;;24.44;63.59;100015.66;5054893;28;20455;-76
2022/06/20 12:52:17;;;;;;;;;;;;;;;24.90;60.54;100024.66;5055057;28;20037;-76
2022/06/20 12:55:11;;;;;;;6.53;3.42;;;;;;;24.91;59.17;100033.66;5054935;28;19912;-76
2022/06/20 12:58:08;;;;;;;4.60;3.40;;;;;;;24.70;58.59;100034.72;5054863;28;20044;-77
2022/06/20 13:00:50;;;;;;;4.35;3.10;;;;;;;23.98;59.20;100037.28;5036936;28;20032;-77
2022/06/20 13:03:35;;;;;;;5.13;3.30;;;;;;;23.74;60.61;100046.97;5053031;28;20037;-77
2022/06/20 13:06:26;;;;;;;8.80;3.97;;;;;;;23.61;60.72;100042.84;5053675;28;20067;-77
2022/06/20 13:08:54;;;;;;;7.50;3.47;;;;;;;23.31;61.47;100048.88;5055151;28;20037;-75
2022/06/20 13:11:55;;;;;;;7.32;3.80;;;;;;;23.24;63.19;100051.00;5054265;28;20119;-75
2022/06/20 13:15:09;;;;;;;8.13;3.47;;;;;;;22.94;62.88;100057.00;5054388;28;20040;-75
2022/06/20 13:17:54;;;;;;;5.68;4.00;;;;;;;23.05;63.46;100047.06;5045934;28;20486;-77
2022/06/20 13:20:39;;;;;;;3.90;3.42;;;;;;;23.20;63.08;100042.53;5053914;28;20049;-76
2022/06/20 13:23:29;;;;;;;6.25;4.13;;;;;;;23.55;62.34;100046.56;5055336;28;20033;-77
2022/06/20 13:26:07;;;;;;;4.82;3.50;;;;;;;23.81;60.23;100036.69;5054407;28;20102;-77
2022/06/20 13:28:57;;;;;;;4.45;3.50;;;;;;;23.99;59.79;100049.78;5054695;28;20037;-77
2022/06/20 13:31:31;;;;;;;7.78;3.45;;;;;;;24.22;58.21;100047.69;5054186;28;20051;-76
2022/06/20 13:34:09;;;;;;;6.30;3.47;;;;;;;24.45;58.39;100058.13;5052667;28;20397;-76
2022/06/20 13:36:52;;;;;;;;;;;;;;;24.43;56.78;100060.28;5054252;28;20040;-76
2022/06/20 13:39:24;;;;;;;6.22;3.88;;;;;;;24.46;56.26;100038.00;5053820;28;19913;-77
2022/06/20 13:42:00;;;;;;;6.07;4.18;;;;;;;23.70;58.17;100043.97;5052038;28;20037;-76
2022/06/20 13:44:34;;;;;;;7.93;3.83;;;;;;;23.47;58.91;100038.91;5053916;28;20047;-75
2022/06/20 13:47:22;;;;;;;5.32;4.15;;;;;;;23.52;58.66;100039.75;5055148;28;20044;-76
2022/06/20 13:50:09;;;;;;;9.15;3.80;;;;;;;23.55;58.83;100050.13;5054667;28;20501;-76
2022/06/20 13:53:04;;;;;;;9.07;4.18;;;;;;;23.59;58.41;100049.56;5056269;28;20044;-78
2022/06/20 13:55:59;;;;;;;5.65;3.60;;;;;;;23.54;58.34;100042.22;5047312;28;20041;-77
2022/06/20 13:58:35;;;;;;;6.13;4.30;;;;;;;23.15;58.46;100028.13;5031387;28;20041;-77
2022/06/20 14:01:06;;;;;;;4.40;3.95;;;;;;;23.50;58.55;100035.66;5052167;28;20025;-76
2022/06/20 14:03:46;;;;;;;6.13;4.25;;;;;;;23.42;58.98;100028.84;5053624;28;20066;-77
2022/06/20 14:06:21;;;;;;;5.07;4.25;;;;;;;23.44;58.51;100032.09;5052342;28;20507;-76
2022/06/20 14:08:50;;;;;;;5.70;3.80;;;;;;;23.28;58.23;100033.09;5053562;28;20036;-78
2022/06/20 14:11:30;;;;;;;4.95;3.65;;;;;;;23.18;58.28;100022.97;5035408;28;20386;-77
2022/06/20 14:13:58;;;;;;;5.93;4.22;;;;;;;22.78;58.49;100038.94;5053176;28;20041;-77
2022/06/20 14:16:35;;;;;;;5.70;4.68;;;;;;;22.92;58.90;100034.72;5053410;28;20074;-76
2022/06/20 14:19:12;;;;;;;4.90;4.22;;;;;;;22.90;59.83;100032.28;5052319;28;20043;-76
2022/06/20 14:21:50;;;;;;;7.97;4.57;;;;;;;22.68;59.39;100024.19;5053646;28;20401;-77
2022/06/20 14:24:23;;;;;;;7.10;4.70;;;;;;;22.70;59.05;100026.66;5052639;28;20496;-77
2022/06/20 14:27:01;;;;;;;6.57;4.60;;;;;;;22.47;60.02;100025.91;5053710;28;20691;-77
2022/06/20 14:29:30;;;;;;;10.68;5.38;;;;;;;22.71;60.17;100015.53;5052247;28;20224;-77
2022/06/20 14:32:08;;;;;;;6.65;4.72;;;;;;;22.42;60.68;100028.56;5052823;28;20090;-76
2022/06/20 14:35:20;;;;;;;6.13;4.68;;;;;;;22.67;59.69;100035.31;5054621;28;20136;-77
2022/06/20 14:37:44;;;;;;;5.50;4.70;;;;;;;22.72;59.29;100027.22;5055406;28;20047;-78
2022/06/20 14:40:25;;;;;;;5.55;4.65;;;;;;;22.93;58.35;100025.50;5056312;28;20402;-78
2022/06/20 14:43:04;;;;;;;5.13;4.47;;;;;;;23.10;58.06;100031.63;5053741;28;20025;-77
2022/06/20 14:45:36;;;;;;;9.10;4.90;;;;;;;22.78;59.38;100028.91;5053822;28;20033;-78
2022/06/20 14:48:23;;;;;;;6.50;4.40;;;;;;;23.21;58.81;100027.06;5055323;28;20040;-78
2022/06/20 14:50:52;;;;;;;;;;;;;;;23.18;58.16;100027.59;5055745;28;20037;-79
2022/06/20 14:53:23;;;;;;;7.25;4.18;;;;;;;23.33;57.73;100024.97;5054974;28;19913;-78
2022/06/20 14:55:55;;;;;;;6.40;4.72;;;;;;;23.34;56.93;100023.06;5053828;28;20456;-79
2022/06/20 14:58:36;;;;;;;5.15;4.65;;;;;;;23.48;56.89;100021.53;5053401;28;20381;-78
2022/06/20 15:01:08;;;;;;;7.95;4.95;;;;;;;23.49;57.08;100010.41;5053324;28;20044;-78
2022/06/20 15:03:50;;;;;;;6.75;4.82;;;;;;;23.34;56.85;100015.72;5054438;28;20072;-78
2022/06/20 15:06:23;;;;;;;5.35;4.53;;;;;;;23.40;57.09;100003.00;5052097;28;20486;-78
2022/06/20 15:09:07;;;;;;;6.60;4.88;;;;;;;23.19;57.36;100007.50;5055375;28;20067;-80
2022/06/20 15:11:37;;;;;;;6.13;5.20;;;;;;;23.22;56.79;100001.53;5053594;28;20036;-79
2022/06/20 15:14:25;;;;;;;6.43;4.60;;;;;;;23.28;56.64;100012.19;5054487;28;20044;-75
2022/06/20 15:17:03;;;;;;;9.68;4.72;;;;;;;23.38;56.24;100013.31;5053434;28;20028;-75
2022/06/20 15:19:42;;;;;;;4.72;4.20;;;;;;;23.27;56.49;100020.56;5063507;28;20040;-77
2022/06/20 15:22:24;;;;;;;9.65;4.90;;;;;;;23.07;56.91;100025.88;5056757;28;20343;-76
2022/06/20 15:25:02;;;;;;;4.88;4.25;;;;;;;23.21;56.46;100027.06;5052547;28;20088;-78
2022/06/20 15:27:34;;;;;;;8.45;4.57;;;;;;;22.87;56.51;100021.09;5062880;28;20398;-80
2022/06/20 15:30:14;;;;;;;7.55;4.60;;;;;;;22.82;57.32;100027.31;5063503;28;20045;-79
2022/06/20 15:32:42;;;;;;;6.68;4.82;;;;;;;22.88;56.86;100029.00;5059531;28;20044;-79
2022/06/20 15:38:02;;;;;;;6.47;4.43;;;;;;;22.97;57.00;100029.34;5067355;28;20040;-80
2022/06/20 15:40:32;;;;;;;5.80;4.38;;;;;;;22.93;56.29;100039.91;5062958;28;20037;-80
2022/06/20 15:43:30;;;;;;;5.07;4.18;;;;;;;22.91;55.98;100038.53;5064372;28;20063;-80
2022/06/20 15:46:01;;;;;;;9.27;5.85;;;;;;;23.03;56.31;100041.88;5063620;28;20131;-78
2022/06/20 15:48:39;;;;;;;5.95;3.90;;;;;;;22.91;56.39;100043.97;5064877;28;20068;-79
2022/06/20 15:51:19;;;;;;;5.45;4.00;;;;;;;23.02;55.83;100034.81;5061861;28;20062;-79
2022/06/20 15:53:45;;;;;;;6.47;3.50;;;;;;;22.86;55.70;100041.16;5057633;28;20037;-79
2022/06/20 15:56:29;;;;;;;3.38;2.72;;;;;;;23.10;56.13;100041.66;5059113;28;20020;-80
2022/06/20 15:59:18;;;;;;;4.43;3.45;;;;;;;23.04;55.45;100045.41;5063998;28;20089;-79
2022/06/20 16:01:53;;;;;;;4.93;3.38;;;;;;;22.56;55.37;100047.97;5062201;28;20123;-79
2022/06/20 16:04:46;;;;;;;6.07;3.00;;;;;;;22.61;55.45;100052.63;5062408;28;20037;-79
2022/06/20 16:07:35;;;;;;;3.65;2.65;;;;;;;22.37;55.38;100057.56;5044987;28;20041;-80
2022/06/20 16:10:19;;;;;;;4.75;2.58;;;;;;;22.09;56.17;100058.56;5061831;28;20061;-80
2022/06/20 16:13:01;;;;;;;4.50;2.88;;;;;;;22.12;56.07;100064.31;5063836;28;20049;-80
2022/06/20 16:15:33;;;;;;;4.13;2.90;;;;;;;22.27;55.75;100058.25;5062349;28;20044;-76
2022/06/20 16:18:01;;;;;;;3.45;2.30;;;;;;;22.21;55.57;100064.69;5052321;28;20037;-76
2022/06/20 16:20:36;;;;;;;3.80;2.40;;;;;;;22.25;55.14;100065.84;5051545;28;20121;-76
2022/06/20 16:23:21;;;;;;;2.80;2.30;;;;;;;22.45;54.64;100068.75;5052235;28;20044;-77
2022/06/20 16:25:59;;;;;;;4.03;2.47;;;;;;;22.47;54.10;100065.78;5061500;28;20093;-80
2022/06/20 16:28:30;;;;;;;5.40;2.60;;;;;;;22.43;53.89;100064.63;5059774;28;20029;-80
2022/06/20 16:31:18;;;;;;;13.48;8.52;;;;;;;22.38;54.69;100064.63;5054640;28;20033;-81
2022/06/20 16:33:47;;;;;;;11.30;7.75;;;;;;;22.34;54.22;100067.00;5087500;22;20052;-77
2022/06/20 16:36:34;;;;;;;5.93;3.42;;;;;;;22.28;54.48;100076.16;5070843;28;20058;-75
2022/06/20 16:39:09;;;;;;;4.20;2.67;;;;;;;21.88;55.29;100060.19;5071640;28;20033;-76
2022/06/20 16:41:49;;;;;;;4.72;2.40;;;;;;;21.74;55.81;100061.63;5071627;28;20035;-75
2022/06/20 16:44:29;;;;;;;3.60;2.53;;;;;;;21.75;56.20;100058.69;5071456;28;20029;-76
2022/06/20 16:47:00;;;;;;;6.25;2.72;;;;;;;21.60;55.82;100067.44;5070276;28;20037;-75
2022/06/20 16:49:32;;;;;;;6.78;2.90;;;;;;;21.56;56.11;100068.97;5071527;28;20036;-78
2022/06/20 16:52:29;;;;;;;6.22;2.10;;;;;;;21.30;56.86;100070.50;5071083;28;20064;-76
2022/06/20 16:55:04;;;;;;;3.33;2.30;;;;;;;21.26;57.55;100066.63;5071293;28;20492;-76
2022/06/20 16:57:46;;;;;;;3.15;2.08;;;;;;;21.23;57.46;100072.53;5071434;28;20028;-76
2022/06/20 17:00:28;;;;;;;4.25;2.17;;;;;;;21.01;57.51;100077.88;5071599;28;20063;-77